Time;durP1;ratioP1;P1;durP2;ratioP2;P2;SDS_P1;SDS_P2;PMS_P1;PMS_P2;Temp;Humidity;BMP_temperature;BMP_pressure;BME280_temperature;BME280_humidity;BME280_pressure;Samples;Min_cycle;Max_cycle;Signal;HPM_P1;HPM_P2
2022/08/21 00:00:44;;;;;;;19.20;17.60;;;13.00;99.90;;;;;;5053199;28;20052;-74
2022/08/21 00:03:12;;;;;;;19.65;18.05;;;13.00;99.90;;;;;;5039982;28;20134;-74
2022/08/21 00:05:43;;;;;;;19.63;17.83;;;12.90;99.90;;;;;;5058686;28;20471;-74
2022/08/21 00:08:10;;;;;;;21.02;18.88;;;12.80;99.90;;;;;;5042506;28;21600;-74
2022/08/21 00:10:40;;;;;;;20.30;18.40;;;12.80;99.90;;;;;;5023174;28;20047;-74
2022/08/21 00:13:07;;;;;;;21.70;19.45;;;12.90;99.90;;;;;;5033301;28;20048;-74
2022/08/21 00:15:36;;;;;;;24.30;20.67;;;12.90;99.90;;;;;;5050176;28;20041;-74
2022/08/21 00:18:04;;;;;;;22.92;20.33;;;12.80;99.90;;;;;;5061943;28;20369;-75
2022/08/21 00:20:32;;;;;;;24.00;21.38;;;12.80;99.90;;;;;;5059950;28;20113;-75
2022/08/21 00:23:00;;;;;;;25.65;22.05;;;12.90;99.90;;;;;;5039127;28;20476;-75
2022/08/21 00:25:27;;;;;;;21.75;19.58;;;12.90;99.90;;;;;;5064577;28;20047;-75
2022/08/21 00:27:55;;;;;;;19.50;17.88;;;12.90;99.90;;;;;;5056834;28;20048;-75
2022/08/21 00:30:23;;;;;;;22.58;20.15;;;12.80;99.90;;;;;;5056079;28;20058;-74
2022/08/21 00:32:52;;;;;;;24.08;21.50;;;12.80;99.90;;;;;;5072472;28;20048;-75
2022/08/21 00:35:24;;;;;;;25.77;23.13;;;12.80;99.90;;;;;;5063994;28;20321;-75
2022/08/21 00:37:51;;;;;;;26.95;23.20;;;12.80;99.90;;;;;;5059750;28;20044;-75
2022/08/21 00:40:23;;;;;;;29.17;21.65;;;13.00;99.90;;;;;;5070347;28;20270;-74
2022/08/21 00:42:50;;;;;;;29.92;23.05;;;13.10;99.90;;;;;;5056206;28;22268;-75
2022/08/21 00:45:21;;;;;;;22.63;20.23;;;13.00;99.90;;;;;;5069646;28;20051;-74
2022/08/21 00:47:48;;;;;;;21.77;19.40;;;13.00;99.90;;;;;;5061945;28;20081;-74
2022/08/21 00:50:15;;;;;;;25.20;19.98;;;13.00;99.90;;;;;;5051390;28;20309;-74
2022/08/21 00:52:49;;;;;;;21.25;18.95;;;12.90;99.90;;;;;;5070085;28;20123;-74
2022/08/21 00:55:16;;;;;;;19.10;16.98;;;12.80;99.90;;;;;;5051062;28;20344;-75
2022/08/21 00:57:49;;;;;;;17.80;16.08;;;12.80;99.90;;;;;;5040754;28;20044;-74
2022/08/21 01:00:21;;;;;;;17.40;15.80;;;12.70;99.90;;;;;;5050930;28;20071;-74
2022/08/21 01:02:48;;;;;;;21.20;16.48;;;12.60;99.90;;;;;;5058404;28;20209;-75
2022/08/21 01:05:16;;;;;;;17.38;15.95;;;12.50;99.90;;;;;;5063735;28;20443;-75
2022/08/21 01:07:44;;;;;;;18.25;16.35;;;12.40;99.90;;;;;;5061791;28;20043;-75
2022/08/21 01:10:12;;;;;;;20.40;18.20;;;12.40;99.90;;;;;;5045989;28;20260;-75
2022/08/21 01:12:52;;;;;;;20.85;18.77;;;12.40;99.90;;;;;;5044914;28;20443;-75
2022/08/21 01:15:21;;;;;;;20.13;18.33;;;12.50;99.90;;;;;;5040966;28;20576;-74
2022/08/21 01:17:49;;;;;;;20.40;18.52;;;12.60;99.90;;;;;;5061517;28;20384;-74
2022/08/21 01:20:16;;;;;;;22.25;20.25;;;12.60;99.90;;;;;;5073405;28;20059;-74
2022/08/21 01:22:43;;;;;;;21.55;19.55;;;12.50;99.90;;;;;;5064338;28;20044;-75
2022/08/21 01:25:12;;;;;;;19.33;17.65;;;12.40;99.90;;;;;;5064387;28;21096;-74
2022/08/21 01:27:39;;;;;;;19.77;17.80;;;12.40;99.90;;;;;;5056934;28;20058;-74
2022/08/21 01:30:21;;;;;;;20.40;18.35;;;12.30;99.90;;;;;;5069916;28;20082;-76
2022/08/21 01:32:50;;;;;;;18.70;17.13;;;12.30;99.90;;;;;;5056595;28;20051;-75
2022/08/21 01:35:19;;;;;;;21.80;19.58;;;12.30;99.90;;;;;;5072206;28;20040;-75
2022/08/21 01:37:47;;;;;;;23.45;19.67;;;12.20;99.90;;;;;;5059644;28;20123;-74
2022/08/21 01:40:17;;;;;;;21.45;19.20;;;12.20;99.90;;;;;;5055087;28;20067;-74
2022/08/21 01:42:45;;;;;;;22.67;20.13;;;12.10;99.90;;;;;;5060309;28;20450;-74
2022/08/21 01:45:13;;;;;;;22.65;20.40;;;12.00;99.90;;;;;;5068324;28;20047;-74
2022/08/21 01:47:40;;;;;;;24.35;20.77;;;12.10;99.90;;;;;;5055340;28;20052;-74
2022/08/21 01:50:12;;;;;;;28.92;21.13;;;12.20;99.90;;;;;;5064095;28;20071;-74
2022/08/21 01:52:39;;;;;;;22.17;19.85;;;12.10;99.90;;;;;;5049460;28;20036;-73
2022/08/21 01:55:08;;;;;;;26.77;20.38;;;12.30;99.90;;;;;;5069586;27;20468;-73
2022/08/21 01:57:35;;;;;;;26.40;21.45;;;12.40;99.90;;;;;;5044809;28;20119;-74
2022/08/21 02:00:05;;;;;;;23.05;19.95;;;12.30;99.90;;;;;;5065922;27;20112;-75
2022/08/21 02:02:38;;;;;;;22.00;18.65;;;12.10;99.90;;;;;;5062709;28;20040;-74
2022/08/21 02:05:06;;;;;;;22.00;19.80;;;12.00;99.90;;;;;;5040892;28;20151;-73
2022/08/21 02:07:45;;;;;;;20.90;18.90;;;12.00;99.90;;;;;;5058844;28;20213;-74
2022/08/21 02:10:21;;;;;;;20.40;18.27;;;11.90;99.90;;;;;;5072942;28;20547;-73
2022/08/21 02:12:47;;;;;;;21.80;19.33;;;11.90;99.90;;;;;;5075536;28;20046;-74
2022/08/21 02:15:15;;;;;;;27.33;20.98;;;11.90;99.90;;;;;;5063838;27;20137;-74
2022/08/21 02:17:55;;;;;;;31.95;23.05;;;12.10;99.90;;;;;;5045309;28;20043;-74
2022/08/21 02:20:26;;;;;;;36.17;25.85;;;12.10;99.90;;;;;;5057707;28;20048;-73
2022/08/21 02:22:53;;;;;;;26.00;20.00;;;12.10;99.90;;;;;;5073829;28;20055;-73
2022/08/21 02:25:21;;;;;;;26.75;20.63;;;12.00;99.90;;;;;;5074903;27;20153;-74
2022/08/21 02:27:48;;;;;;;20.38;18.23;;;12.00;99.90;;;;;;5068524;28;20120;-73
2022/08/21 02:30:38;;;;;;;23.20;20.65;;;11.90;99.90;;;;;;5068348;28;20047;-73
2022/08/21 02:33:05;;;;;;;25.17;20.42;;;12.00;99.90;;;;;;5053524;28;20047;-74
2022/08/21 02:35:32;;;;;;;24.77;20.20;;;11.90;99.90;;;;;;5075480;27;20062;-74
2022/08/21 02:38:04;;;;;;;31.15;21.50;;;11.90;99.90;;;;;;5072377;27;20051;-74
2022/08/21 02:40:34;;;;;;;31.65;22.20;;;11.80;99.90;;;;;;5069355;28;20109;-74
2022/08/21 02:43:02;;;;;;;24.75;21.20;;;11.90;99.90;;;;;;5057264;28;20050;-74
2022/08/21 02:45:29;;;;;;;22.90;20.50;;;11.80;99.90;;;;;;5059443;28;20040;-74
2022/08/21 02:48:00;;;;;;;20.63;18.42;;;11.70;99.90;;;;;;5059403;28;21377;-74
2022/08/21 02:50:39;;;;;;;19.67;17.67;;;11.70;99.90;;;;;;5064390;28;20070;-73
2022/08/21 02:53:07;;;;;;;25.08;20.70;;;11.70;99.90;;;;;;5070160;22;20052;-76
2022/08/21 02:55:36;;;;;;;25.42;21.00;;;11.70;99.90;;;;;;5045266;28;20044;-76
2022/08/21 02:58:06;;;;;;;26.08;22.25;;;11.60;99.90;;;;;;5041013;28;20114;-77
2022/08/21 03:00:35;;;;;;;23.15;20.60;;;11.60;99.90;;;;;;5045129;28;20048;-75
2022/08/21 03:03:04;;;;;;;26.85;21.75;;;11.60;99.90;;;;;;5042605;28;20040;-76
2022/08/21 03:05:34;;;;;;;25.90;22.25;;;11.80;99.90;;;;;;5017815;28;20061;-76
2022/08/21 03:08:02;;;;;;;36.85;25.05;;;11.70;99.90;;;;;;5026310;28;20053;-75
2022/08/21 03:10:30;;;;;;;38.83;26.63;;;11.70;99.90;;;;;;5028378;28;20060;-75
2022/08/21 03:12:57;;;;;;;50.10;27.58;;;11.70;99.90;;;;;;5042479;28;20213;-74
2022/08/21 03:15:25;;;;;;;31.27;23.90;;;11.80;99.90;;;;;;5037774;28;20037;-76
2022/08/21 03:17:52;;;;;;;37.15;25.52;;;11.70;99.90;;;;;;5026245;28;20041;-74
2022/08/21 03:20:23;;;;;;;29.75;22.40;;;11.70;99.90;;;;;;5000871;28;20037;-73
2022/08/21 03:22:51;;;;;;;30.88;21.25;;;11.70;99.90;;;;;;5023399;28;20048;-77
2022/08/21 03:25:25;;;;;;;31.38;21.88;;;11.60;99.90;;;;;;5038617;28;20056;-74
2022/08/21 03:28:09;;;;;;;36.72;23.40;;;11.70;99.90;;;;;;5020189;28;20048;-76
2022/08/21 03:30:44;;;;;;;35.92;22.90;;;11.70;99.90;;;;;;5036271;28;20141;-76
2022/08/21 03:33:11;;;;;;;34.00;21.33;;;11.80;99.90;;;;;;5025701;28;20118;-76
2022/08/21 03:35:43;;;;;;;38.55;25.63;;;11.90;99.90;;;;;;5040753;28;20499;-75
2022/08/21 03:38:09;;;;;;;39.42;24.58;;;11.80;99.90;;;;;;5024942;28;20107;-75
2022/08/21 03:40:36;;;;;;;42.42;26.85;;;11.80;99.90;;;;;;5024690;28;20041;-76
2022/08/21 03:43:03;;;;;;;39.30;26.58;;;11.90;99.90;;;;;;5020713;28;20291;-77
2022/08/21 03:45:31;;;;;;;39.55;25.98;;;11.80;99.90;;;;;;5026777;28;20108;-77
2022/08/21 03:48:01;;;;;;;36.95;25.08;;;11.70;99.90;;;;;;5059625;28;20056;-75
2022/08/21 03:50:34;;;;;;;37.08;25.30;;;11.80;99.90;;;;;;5028305;28;20806;-76
2022/08/21 03:53:08;;;;;;;55.03;31.73;;;11.70;99.90;;;;;;5004454;28;20531;-75
2022/08/21 03:55:47;;;;;;;29.35;20.95;;;11.80;99.90;;;;;;5022557;28;20539;-75
2022/08/21 03:58:16;;;;;;;32.25;22.00;;;11.70;99.90;;;;;;5012761;28;20451;-75
2022/08/21 04:00:48;;;;;;;43.58;28.27;;;11.60;99.90;;;;;;5027342;28;20399;-74
2022/08/21 04:03:16;;;;;;;32.92;23.20;;;11.70;99.90;;;;;;5009779;28;20124;-73
2022/08/21 04:05:45;;;;;;;29.17;20.38;;;11.60;99.90;;;;;;5009981;28;20131;-74
2022/08/21 04:08:13;;;;;;;27.77;20.65;;;11.60;99.90;;;;;;5025006;28;20044;-73
2022/08/21 04:10:40;;;;;;;40.72;26.48;;;11.60;99.90;;;;;;5005807;28;20140;-75
2022/08/21 04:13:08;;;;;;;36.80;21.77;;;11.60;99.90;;;;;;5009412;28;20515;-74
2022/08/21 04:15:35;;;;;;;36.47;24.77;;;11.70;99.90;;;;;;5023637;28;20104;-74
2022/08/21 04:18:03;;;;;;;35.40;24.17;;;11.70;99.90;;;;;;5032393;28;21077;-74
2022/08/21 04:20:30;;;;;;;38.65;24.30;;;11.80;99.90;;;;;;5030966;28;20052;-74
2022/08/21 04:22:57;;;;;;;45.08;25.45;;;11.80;99.90;;;;;;5023683;28;20141;-75
2022/08/21 04:25:25;;;;;;;36.83;24.75;;;12.00;99.90;;;;;;5027965;28;20171;-74
2022/08/21 04:27:53;;;;;;;36.05;21.98;;;12.00;99.90;;;;;;5022201;28;20107;-74
2022/08/21 04:30:20;;;;;;;34.00;24.60;;;12.10;99.90;;;;;;5025287;28;20120;-74
2022/08/21 04:32:55;;;;;;;29.70;22.27;;;12.20;99.90;;;;;;5008686;28;20041;-74
2022/08/21 04:35:23;;;;;;;35.03;24.55;;;12.10;99.90;;;;;;5024469;28;20627;-74
2022/08/21 04:37:50;;;;;;;38.05;26.50;;;12.30;99.90;;;;;;5019362;28;20180;-75
2022/08/21 04:40:20;;;;;;;32.92;23.67;;;12.20;99.90;;;;;;5022541;28;20045;-74
2022/08/21 04:42:49;;;;;;;34.13;23.17;;;12.20;99.90;;;;;;5022565;28;20534;-74
2022/08/21 04:45:44;;;;;;;30.60;23.05;;;12.20;99.90;;;;;;5021155;28;20065;-75
2022/08/21 04:48:13;;;;;;;27.98;20.02;;;12.20;99.90;;;;;;5006156;28;20071;-74
2022/08/21 04:50:52;;;;;;;26.30;19.50;;;12.30;99.90;;;;;;5020612;28;20136;-74
2022/08/21 04:53:30;;;;;;;25.02;19.48;;;12.30;99.90;;;;;;5023086;28;20643;-75
2022/08/21 04:56:00;;;;;;;26.50;20.58;;;12.30;99.90;;;;;;5023352;28;20526;-74
2022/08/21 04:58:28;;;;;;;30.63;23.08;;;12.30;99.90;;;;;;5007443;28;20046;-74
2022/08/21 05:00:57;;;;;;;29.38;22.92;;;12.40;99.90;;;;;;5008796;28;20045;-74
2022/08/21 05:03:24;;;;;;;33.03;24.17;;;12.60;99.90;;;;;;5032831;28;20041;-74
2022/08/21 05:05:51;;;;;;;28.25;22.00;;;12.50;99.90;;;;;;5024924;28;20033;-74
2022/08/21 05:08:23;;;;;;;25.23;20.75;;;12.70;99.90;;;;;;5029588;28;20068;-74
2022/08/21 05:10:50;;;;;;;33.10;23.92;;;12.80;99.90;;;;;;5055332;28;20768;-74
2022/08/21 05:13:17;;;;;;;32.17;22.65;;;12.90;99.90;;;;;;5028041;28;20042;-75
2022/08/21 05:15:44;;;;;;;31.52;23.85;;;12.90;99.90;;;;;;5022804;28;20068;-74
2022/08/21 05:18:10;;;;;;;26.45;21.25;;;13.10;99.90;;;;;;5018808;28;20137;-74
2022/08/21 05:20:38;;;;;;;26.33;19.98;;;13.00;99.90;;;;;;5027575;28;20045;-74
2022/08/21 05:23:12;;;;;;;29.85;21.48;;;13.00;99.90;;;;;;5005458;28;20049;-74
2022/08/21 05:25:41;;;;;;;25.00;19.50;;;13.10;99.90;;;;;;5012801;28;20107;-73
2022/08/21 05:28:08;;;;;;;24.30;21.13;;;13.20;99.90;;;;;;5003818;28;20048;-73
2022/08/21 05:30:35;;;;;;;24.45;20.10;;;13.30;99.90;;;;;;5017548;28;20095;-77
2022/08/21 05:33:03;;;;;;;33.30;23.95;;;13.30;99.90;;;;;;5019630;28;20049;-74
2022/08/21 05:35:32;;;;;;;28.55;21.23;;;13.40;99.90;;;;;;5010613;28;20136;-74
2022/08/21 05:37:59;;;;;;;35.33;26.08;;;13.40;99.90;;;;;;5034155;28;20045;-74
2022/08/21 05:40:27;;;;;;;33.70;24.95;;;13.50;99.90;;;;;;5043953;28;20044;-75
2022/08/21 05:42:55;;;;;;;22.70;20.30;;;13.50;99.90;;;;;;5032070;28;20037;-74
2022/08/21 05:45:24;;;;;;;25.73;20.60;;;13.70;99.90;;;;;;5020674;28;20714;-74
2022/08/21 05:48:08;;;;;;;;;;;13.90;99.90;;;;;;5019404;28;20416;-74
2022/08/21 05:50:37;;;;;;;28.08;21.55;;;13.90;99.90;;;;;;5030042;28;19929;-74
2022/08/21 05:53:05;;;;;;;24.98;22.35;;;14.00;99.90;;;;;;5023555;28;20507;-74
2022/08/21 05:55:33;;;;;;;26.85;23.80;;;14.10;99.90;;;;;;5007429;28;20532;-74
2022/08/21 05:58:00;;;;;;;29.02;24.98;;;14.10;99.90;;;;;;5020324;28;20053;-74
2022/08/21 06:00:27;;;;;;;33.03;25.73;;;14.20;99.90;;;;;;5021655;28;20077;-76
2022/08/21 06:02:54;;;;;;;31.52;25.20;;;14.30;99.90;;;;;;5007137;28;20069;-74
2022/08/21 06:05:21;;;;;;;37.28;24.98;;;14.30;99.90;;;;;;5018712;28;20144;-74
2022/08/21 06:08:03;;;;;;;32.50;25.38;;;14.30;99.90;;;;;;5024457;28;20111;-76
2022/08/21 06:10:30;;;;;;;33.53;25.45;;;14.30;99.90;;;;;;5000686;28;20503;-76
2022/08/21 06:12:57;;;;;;;36.22;25.92;;;14.40;99.90;;;;;;5023262;28;20041;-76
2022/08/21 06:15:25;;;;;;;30.80;26.73;;;14.50;99.90;;;;;;5001267;28;20061;-74
2022/08/21 06:17:53;;;;;;;32.67;26.90;;;14.50;99.90;;;;;;5007062;28;20482;-74
2022/08/21 06:20:20;;;;;;;32.83;27.75;;;14.50;99.90;;;;;;5025226;28;20103;-74
2022/08/21 06:22:47;;;;;;;31.30;25.60;;;14.50;99.90;;;;;;5023640;28;20033;-77
2022/08/21 06:25:13;;;;;;;38.00;27.98;;;14.70;99.90;;;;;;5021520;28;20626;-73
2022/08/21 06:27:40;;;;;;;34.90;26.85;;;14.80;99.90;;;;;;5011296;28;20145;-74
2022/08/21 06:30:08;;;;;;;35.50;27.20;;;14.90;99.90;;;;;;5023312;28;20053;-75
2022/08/21 06:32:35;;;;;;;31.85;26.33;;;15.00;99.90;;;;;;5040380;28;20037;-73
2022/08/21 06:35:03;;;;;;;33.20;25.90;;;15.10;99.90;;;;;;5030843;28;20094;-73
2022/08/21 06:37:31;;;;;;;34.83;24.10;;;15.20;99.90;;;;;;5036718;28;20473;-74
2022/08/21 06:39:58;;;;;;;30.42;23.42;;;15.30;99.90;;;;;;5038321;28;20040;-74
2022/08/21 06:42:27;;;;;;;24.80;22.30;;;15.50;99.90;;;;;;5028731;28;20037;-74
2022/08/21 06:44:56;;;;;;;27.48;22.85;;;16.00;99.90;;;;;;5010149;28;20048;-74
2022/08/21 06:47:23;;;;;;;23.88;21.40;;;16.40;99.90;;;;;;5042577;28;20672;-74
2022/08/21 06:49:49;;;;;;;24.80;22.48;;;16.80;99.90;;;;;;5046338;28;20751;-73
2022/08/21 06:52:16;;;;;;;25.67;23.27;;;17.40;99.90;;;;;;5044000;28;20134;-74
2022/08/21 06:54:43;;;;;;;25.35;23.05;;;17.80;99.90;;;;;;5023894;28;20176;-73
2022/08/21 06:57:10;;;;;;;25.63;23.33;;;18.20;99.90;;;;;;5034715;28;20909;-76
2022/08/21 06:59:36;;;;;;;26.02;23.63;;;18.40;99.90;;;;;;5028248;28;20064;-76
2022/08/21 07:02:03;;;;;;;25.65;23.35;;;18.80;99.90;;;;;;5030295;28;20041;-75
2022/08/21 07:04:30;;;;;;;26.02;23.63;;;19.20;99.90;;;;;;5056702;28;20450;-73
2022/08/21 07:06:57;;;;;;;27.85;25.23;;;19.40;99.90;;;;;;5052701;28;20119;-75
2022/08/21 07:09:24;;;;;;;26.52;24.08;;;19.50;99.90;;;;;;5052891;28;20122;-73
2022/08/21 07:11:54;;;;;;;27.52;24.67;;;19.80;99.90;;;;;;5024975;28;20044;-74
2022/08/21 07:14:21;;;;;;;28.20;25.75;;;19.90;99.90;;;;;;5021171;28;20049;-76
2022/08/21 07:16:48;;;;;;;27.92;25.27;;;20.10;99.90;;;;;;5011863;28;20076;-74
2022/08/21 07:19:15;;;;;;;27.98;24.98;;;20.00;99.90;;;;;;5005739;28;20053;-74
2022/08/21 07:21:42;;;;;;;29.20;25.85;;;20.20;99.90;;;;;;5019141;28;20033;-74
2022/08/21 07:24:09;;;;;;;28.23;25.80;;;20.30;99.90;;;;;;5017571;28;20069;-73
2022/08/21 07:26:36;;;;;;;27.92;25.75;;;20.60;99.90;;;;;;5031460;28;20108;-74
2022/08/21 07:29:04;;;;;;;26.77;24.80;;;20.90;99.90;;;;;;5041528;28;20049;-76
2022/08/21 07:31:31;;;;;;;27.25;24.92;;;21.10;99.90;;;;;;5036052;28;20115;-74
2022/08/21 07:33:58;;;;;;;27.15;24.80;;;21.40;99.90;;;;;;5039126;28;20631;-74
2022/08/21 07:36:24;;;;;;;27.38;24.52;;;21.60;99.90;;;;;;5038297;28;20072;-71
2022/08/21 07:38:51;;;;;;;25.65;23.45;;;21.80;99.90;;;;;;5040154;28;20087;-72
2022/08/21 07:41:22;;;;;;;26.65;24.63;;;21.80;99.90;;;;;;5020080;28;20044;-74
2022/08/21 07:43:49;;;;;;;25.75;23.73;;;22.20;99.90;;;;;;5039482;28;20106;-73
2022/08/21 07:46:19;;;;;;;25.83;23.63;;;22.30;99.90;;;;;;5002695;28;20750;-73
2022/08/21 07:48:46;;;;;;;26.23;24.02;;;22.40;99.90;;;;;;5042224;28;20543;-76
2022/08/21 07:51:16;;;;;;;23.27;21.52;;;22.40;99.90;;;;;;5037316;28;20045;-75
2022/08/21 07:53:48;;;;;;;23.23;21.33;;;22.70;99.90;;;;;;5024068;28;20289;-76
2022/08/21 07:56:15;;;;;;;22.48;20.33;;;22.80;99.90;;;;;;5037922;28;20760;-75
2022/08/21 07:58:41;;;;;;;22.75;20.77;;;22.90;99.90;;;;;;5045666;28;20037;-75
2022/08/21 08:01:08;;;;;;;22.52;20.75;;;22.80;99.90;;;;;;5018706;28;20132;-76
2022/08/21 08:03:35;;;;;;;23.15;21.20;;;22.90;99.90;;;;;;5037520;28;20048;-76
2022/08/21 08:06:04;;;;;;;22.85;21.00;;;23.00;99.90;;;;;;5018031;28;20049;-75
2022/08/21 08:08:31;;;;;;;22.33;20.75;;;22.90;99.90;;;;;;5020216;28;20091;-75
2022/08/21 08:10:59;;;;;;;23.23;21.25;;;22.90;99.90;;;;;;5002190;28;20090;-75
2022/08/21 08:13:26;;;;;;;22.73;20.92;;;23.00;99.90;;;;;;5034327;28;20103;-75
2022/08/21 08:15:53;;;;;;;23.35;21.55;;;23.50;99.90;;;;;;5002461;28;20112;-76
2022/08/21 08:18:20;;;;;;;23.20;21.35;;;23.30;99.90;;;;;;5039379;28;20157;-75
2022/08/21 08:20:46;;;;;;;22.70;21.00;;;23.30;99.90;;;;;;5040953;28;20045;-75
2022/08/21 08:23:14;;;;;;;22.45;20.50;;;23.50;99.90;;;;;;5035230;28;20045;-76
2022/08/21 08:25:41;;;;;;;22.63;20.98;;;23.50;99.90;;;;;;5014995;28;20045;-75
2022/08/21 08:28:08;;;;;;;20.58;19.25;;;23.60;99.90;;;;;;5016245;28;20182;-75
2022/08/21 08:30:44;;;;;;;;;;;23.70;99.90;;;;;;5034717;28;20041;-75
2022/08/21 08:33:11;;;;;;;21.05;19.38;;;23.80;99.90;;;;;;5035738;28;19970;-76
2022/08/21 08:35:38;;;;;;;21.20;19.70;;;23.90;99.90;;;;;;5037383;28;20048;-73
2022/08/21 08:38:05;;;;;;;22.10;20.13;;;23.90;99.90;;;;;;5034367;28;20052;-74
2022/08/21 08:40:55;;;;;;;22.00;20.23;;;23.80;99.90;;;;;;5039864;28;20114;-74
2022/08/21 08:43:22;;;;;;;21.77;20.08;;;23.80;99.90;;;;;;5009723;28;20052;-74
2022/08/21 08:45:51;;;;;;;22.20;20.48;;;23.90;99.90;;;;;;5036201;28;20108;-73
2022/08/21 08:48:42;;;;;;;21.90;20.25;;;23.60;99.90;;;;;;5040972;28;20254;-74
2022/08/21 08:51:29;;;;;;;23.00;20.92;;;23.60;99.90;;;;;;5026623;28;20127;-74
2022/08/21 08:54:02;;;;;;;22.42;20.73;;;23.90;99.90;;;;;;5035658;23;20099;-74
2022/08/21 08:56:32;;;;;;;22.77;20.88;;;24.10;99.90;;;;;;5013368;28;20045;-76
2022/08/21 08:59:21;;;;;;;22.95;21.38;;;24.20;99.90;;;;;;5038214;28;20077;-75
2022/08/21 09:01:48;;;;;;;23.42;21.75;;;24.40;99.90;;;;;;5021439;28;20041;-76
2022/08/21 09:04:25;;;;;;;22.98;21.30;;;24.40;99.90;;;;;;4998428;28;20703;-75
2022/08/21 09:07:20;;;;;;;23.38;21.35;;;24.60;99.90;;;;;;5014912;28;20065;-75
2022/08/21 09:10:02;;;;;;;23.23;21.27;;;24.40;99.90;;;;;;5013836;28;20107;-75
2022/08/21 09:12:39;;;;;;;23.13;21.42;;;24.30;99.90;;;;;;5012331;28;20045;-75
2022/08/21 09:15:11;;;;;;;23.10;21.23;;;24.50;99.90;;;;;;5013241;28;20049;-75
2022/08/21 09:18:09;;;;;;;23.55;21.63;;;24.50;99.90;;;;;;4996684;28;20519;-75
2022/08/21 09:20:46;;;;;;;24.15;22.08;;;24.50;99.90;;;;;;5016198;28;20068;-76
2022/08/21 09:23:29;;;;;;;23.67;21.77;;;24.60;99.90;;;;;;4973681;28;20111;-75
2022/08/21 09:26:11;;;;;;;21.38;19.75;;;24.70;99.90;;;;;;5013372;28;20048;-76
2022/08/21 09:28:38;;;;;;;24.73;22.30;;;24.40;99.90;;;;;;5013560;28;20057;-75
2022/08/21 09:31:15;;;;;;;23.63;21.73;;;24.20;99.90;;;;;;5006279;28;20518;-76
2022/08/21 09:33:42;;;;;;;23.73;21.77;;;24.20;99.90;;;;;;4992066;28;20041;-75
2022/08/21 09:36:10;;;;;;;25.02;23.13;;;24.50;99.90;;;;;;5007882;28;20045;-74
2022/08/21 09:38:37;;;;;;;22.65;20.88;;;24.70;99.90;;;;;;4977492;28;20132;-76
2022/08/21 09:41:08;;;;;;;24.33;22.52;;;24.40;99.90;;;;;;5011491;28;20045;-75
2022/08/21 09:43:36;;;;;;;24.27;22.42;;;24.80;99.90;;;;;;4995948;28;20100;-75
2022/08/21 09:46:19;;;;;;;24.55;22.50;;;25.00;99.90;;;;;;5008763;28;20595;-75
2022/08/21 09:48:49;;;;;;;24.45;22.50;;;25.30;99.90;;;;;;5012885;28;20041;-75
2022/08/21 09:51:26;;;;;;;23.92;22.33;;;25.30;99.90;;;;;;5009471;28;20708;-75
2022/08/21 09:54:00;;;;;;;25.73;23.40;;;25.40;99.90;;;;;;4978012;28;20700;-75
2022/08/21 09:59:43;;;;;;;25.05;22.98;;;25.50;99.90;;;;;;5011507;28;20041;-74
2022/08/21 10:02:30;;;;;;;25.40;23.27;;;25.60;99.90;;;;;;5009743;28;20601;-74
2022/08/21 10:05:08;;;;;;;25.23;23.30;;;25.40;99.90;;;;;;4989383;28;20117;-74
2022/08/21 10:07:37;;;;;;;23.42;21.60;;;25.30;99.90;;;;;;5018031;28;20423;-74
2022/08/21 10:10:23;;;;;;;24.90;22.88;;;25.20;99.90;;;;;;5011055;28;20049;-74
2022/08/21 10:13:13;;;;;;;25.63;23.63;;;25.00;99.90;;;;;;5013751;28;20132;-74
2022/08/21 10:15:43;;;;;;;24.65;22.70;;;25.00;99.90;;;;;;4995455;28;20107;-74
2022/08/21 10:18:18;;;;;;;24.25;22.42;;;25.30;99.90;;;;;;5011448;28;21535;-74
2022/08/21 10:21:02;;;;;;;25.48;23.08;;;25.50;99.90;;;;;;5004357;28;20108;-77
2022/08/21 10:23:47;;;;;;;25.63;23.73;;;25.40;99.90;;;;;;5016820;28;20395;-76
2022/08/21 10:26:25;;;;;;;24.77;23.20;;;25.50;99.90;;;;;;5017043;28;20107;-75
2022/08/21 10:29:12;;;;;;;25.33;23.48;;;25.30;99.90;;;;;;4982713;28;20053;-75
2022/08/21 10:31:52;;;;;;;24.85;22.95;;;25.20;99.90;;;;;;5009901;28;20066;-75
2022/08/21 10:34:38;;;;;;;26.15;24.08;;;25.40;99.90;;;;;;5018402;28;20510;-74
2022/08/21 10:37:14;;;;;;;25.67;23.88;;;25.10;99.90;;;;;;5007840;28;20048;-75
2022/08/21 10:40:11;;;;;;;24.20;22.45;;;25.10;99.90;;;;;;5017631;28;20072;-75
2022/08/21 10:43:16;;;;;;;24.73;22.65;;;25.60;99.90;;;;;;5012343;28;20254;-75
2022/08/21 10:45:52;;;;;;;26.60;24.50;;;25.20;99.90;;;;;;4995305;28;20045;-74
2022/08/21 10:48:24;;;;;;;25.90;23.60;;;25.20;99.90;;;;;;5003370;28;20057;-75
2022/08/21 10:50:59;;;;;;;25.98;23.80;;;25.20;99.90;;;;;;5012731;28;20045;-75
2022/08/21 10:53:36;;;;;;;26.23;24.23;;;25.40;99.90;;;;;;4999740;28;20112;-75
2022/08/21 10:56:19;;;;;;;25.95;23.85;;;25.70;99.90;;;;;;5017055;28;20597;-75
2022/08/21 10:59:14;;;;;;;26.23;23.88;;;26.00;99.90;;;;;;4998704;28;20099;-78
2022/08/21 11:01:41;;;;;;;;;;;25.90;99.90;;;;;;5000134;28;20107;-76
2022/08/21 11:04:24;;;;;;;26.13;24.30;;;25.80;99.90;;;;;;5005478;28;19949;-76
2022/08/21 11:07:03;;;;;;;25.83;24.05;;;26.00;99.90;;;;;;5010755;28;20654;-75
2022/08/21 11:09:47;;;;;;;27.20;25.23;;;26.20;99.90;;;;;;5012425;28;20057;-76
2022/08/21 11:12:38;;;;;;;26.75;24.95;;;26.10;99.90;;;;;;4989866;28;20076;-76
2022/08/21 11:15:20;;;;;;;26.02;23.98;;;26.30;99.90;;;;;;5016291;28;20499;-77
2022/08/21 11:18:16;;;;;;;27.13;24.85;;;25.90;99.90;;;;;;5021729;28;20068;-75
2022/08/21 11:21:19;;;;;;;26.33;24.42;;;25.60;99.90;;;;;;5013256;28;20115;-75
2022/08/21 11:23:54;;;;;;;27.67;25.35;;;25.70;99.90;;;;;;4989493;28;20045;-75
2022/08/21 11:26:32;;;;;;;26.52;24.35;;;26.10;99.90;;;;;;5014493;28;20095;-75
2022/08/21 11:29:07;;;;;;;26.80;25.05;;;26.40;99.90;;;;;;4998510;28;20115;-76
2022/08/21 11:31:47;;;;;;;27.27;25.48;;;26.20;99.90;;;;;;5016371;28;20049;-76
2022/08/21 11:34:26;;;;;;;28.58;26.45;;;26.20;99.90;;;;;;4985633;28;20137;-76
2022/08/21 11:37:05;;;;;;;26.52;24.55;;;25.80;99.90;;;;;;5017624;28;20604;-76
2022/08/21 11:40:10;;;;;;;28.15;26.10;;;25.90;99.90;;;;;;5000491;28;20673;-77
2022/08/21 11:42:54;;;;;;;26.92;25.23;;;26.00;99.90;;;;;;4947017;28;20070;-76
2022/08/21 11:45:39;;;;;;;26.52;24.80;;;25.80;99.90;;;;;;4947897;28;20043;-77
2022/08/21 11:48:17;;;;;;;26.90;25.10;;;25.80;99.90;;;;;;4998134;28;20581;-77
2022/08/21 11:50:46;;;;;;;26.48;24.58;;;25.80;99.90;;;;;;5014876;28;20061;-76
2022/08/21 11:53:26;;;;;;;27.05;25.25;;;26.00;99.90;;;;;;5014308;28;20073;-76
2022/08/21 11:56:06;;;;;;;26.65;24.88;;;25.80;99.90;;;;;;5009173;28;20042;-77
2022/08/21 11:58:47;;;;;;;26.05;24.17;;;25.90;99.90;;;;;;5017417;28;20049;-77
2022/08/21 12:01:20;;;;;;;23.63;22.02;;;26.00;99.90;;;;;;4999945;28;20076;-76
2022/08/21 12:04:16;;;;;;;25.38;23.58;;;25.90;99.90;;;;;;5010723;28;20080;-77
2022/08/21 12:06:44;;;;;;;26.45;24.85;;;25.70;99.90;;;;;;5018005;28;20038;-77
2022/08/21 12:09:34;;;;;;;27.08;25.20;;;25.50;99.90;;;;;;5016496;28;20466;-76
2022/08/21 12:12:03;;;;;;;27.70;25.92;;;25.50;99.90;;;;;;5001100;28;20050;-76
2022/08/21 12:14:45;;;;;;;27.80;25.90;;;25.80;99.90;;;;;;5000662;28;20249;-76
2022/08/21 12:17:23;;;;;;;27.23;25.63;;;26.00;99.90;;;;;;5013722;28;20072;-78
2022/08/21 12:20:15;;;;;;;25.67;24.08;;;26.00;99.90;;;;;;5016281;28;20046;-75
2022/08/21 12:23:01;;;;;;;26.67;24.67;;;26.00;99.90;;;;;;4995419;28;20713;-76
2022/08/21 12:25:43;;;;;;;27.35;25.75;;;25.60;99.90;;;;;;4982835;28;20737;-77
2022/08/21 12:28:22;;;;;;;27.80;26.08;;;25.60;99.90;;;;;;5005722;28;20053;-77
2022/08/21 12:30:49;;;;;;;28.50;26.58;;;25.90;99.90;;;;;;5012046;28;20045;-77
2022/08/21 12:33:31;;;;;;;27.52;25.75;;;25.80;99.90;;;;;;4995288;28;20589;-77
2022/08/21 12:36:03;;;;;;;;;;;25.90;99.90;;;;;;5015173;28;20100;-75
2022/08/21 12:38:44;;;;;;;28.02;26.20;;;26.00;99.90;;;;;;5020089;28;20434;-75
2022/08/21 12:41:22;;;;;;;28.33;26.67;;;26.30;99.90;;;;;;5008395;28;20251;-75
2022/08/21 12:43:59;;;;;;;25.50;23.77;;;26.60;99.90;;;;;;5008811;28;20527;-76
2022/08/21 12:46:43;;;;;;;25.83;24.25;;;26.70;99.90;;;;;;5016647;28;20099;-76
2022/08/21 12:49:18;;;;;;;26.98;25.27;;;26.30;99.90;;;;;;5012180;28;20053;-75
2022/08/21 12:52:16;;;;;;;27.27;25.67;;;25.90;99.90;;;;;;4997652;28;20044;-75
2022/08/21 12:54:44;;;;;;;26.95;25.08;;;26.00;99.90;;;;;;5009148;28;20054;-77
2022/08/21 12:57:21;;;;;;;28.02;25.73;;;25.90;99.90;;;;;;5009061;28;20053;-76